RYR9GA EGSS-EPKK
Flight info
| Callsign | RYR9GA |
|---|---|
| Flight time | 2h 4m |
| Altitude | 37000 |
| Route | CLN P44 RATLO M197 REDFA DCT TACHA DCT OTMEC DCT ZUCKA DCT DESAR DCT LASIS T714 MOFKE |
| Aircraft | B738/M-SDE2E3FGHIRWXY/LB1 |
Departure
| Time | 2026-05-01 12:44 |
|---|---|
| Airport | London Stansted Airport (EGSS) |
Arrival
| Time | 2026-05-01 14:48 |
|---|---|
| Airport | Kraków John Paul II International Airport (EPKK) |
| Time | Latitude | Longitude | Altitude | Speed | Heading |
|---|---|---|---|---|---|
| 2026-05-01 12:06 | 51.89214 | 0.25648 | 339 ft | 0 kts | 221° |
| 2026-05-01 12:30 | 51.89218 | 0.25652 | 338 ft | 2 kts | 220° |
| 2026-05-01 12:30 | 51.89233 | 0.25673 | 339 ft | 2 kts | 221° |
| 2026-05-01 12:31 | 51.89240 | 0.25684 | 339 ft | 2 kts | 221° |
| 2026-05-01 12:31 | 51.89249 | 0.25704 | 340 ft | 2 kts | 259° |
| 2026-05-01 12:31 | 51.89248 | 0.25728 | 340 ft | 2 kts | 294° |
| 2026-05-01 12:31 | 51.89242 | 0.25742 | 340 ft | 1 kts | 316° |
| 2026-05-01 12:32 | 51.89240 | 0.25746 | 340 ft | 0 kts | 313° |
| 2026-05-01 12:35 | 51.89240 | 0.25745 | 340 ft | 0 kts | 313° |
| 2026-05-01 12:35 | 51.89247 | 0.25732 | 340 ft | 5 kts | 313° |
| 2026-05-01 12:36 | 51.89269 | 0.25695 | 340 ft | 7 kts | 313° |
| 2026-05-01 12:36 | 51.89300 | 0.25640 | 340 ft | 6 kts | 312° |
| 2026-05-01 12:36 | 51.89336 | 0.25580 | 341 ft | 7 kts | 322° |
| 2026-05-01 12:36 | 51.89381 | 0.25533 | 342 ft | 7 kts | 328° |
| 2026-05-01 12:37 | 51.89429 | 0.25454 | 342 ft | 9 kts | 277° |
| 2026-05-01 12:37 | 51.89379 | 0.25350 | 341 ft | 17 kts | 222° |
| 2026-05-01 12:37 | 51.89282 | 0.25200 | 340 ft | 19 kts | 229° |
| 2026-05-01 12:37 | 51.89206 | 0.25018 | 338 ft | 19 kts | 229° |
| 2026-05-01 12:38 | 51.89175 | 0.24969 | 337 ft | 0 kts | 222° |
| 2026-05-01 12:38 | 51.89111 | 0.24876 | 335 ft | 25 kts | 222° |
| 2026-05-01 12:38 | 51.88937 | 0.24614 | 332 ft | 37 kts | 223° |
| 2026-05-01 12:38 | 51.88747 | 0.24329 | 329 ft | 37 kts | 224° |
| 2026-05-01 12:39 | 51.88561 | 0.24050 | 330 ft | 37 kts | 222° |
| 2026-05-01 12:39 | 51.88345 | 0.23727 | 334 ft | 44 kts | 223° |
| 2026-05-01 12:39 | 51.88126 | 0.23396 | 340 ft | 42 kts | 222° |
| 2026-05-01 12:39 | 51.87911 | 0.23076 | 338 ft | 41 kts | 223° |
| 2026-05-01 12:40 | 51.87707 | 0.22771 | 335 ft | 40 kts | 222° |
| 2026-05-01 12:40 | 51.87504 | 0.22465 | 335 ft | 37 kts | 222° |
| 2026-05-01 12:40 | 51.87407 | 0.22266 | 333 ft | 17 kts | 260° |
| 2026-05-01 12:40 | 51.87424 | 0.22170 | 333 ft | 0 kts | 307° |
| 2026-05-01 12:41 | 51.87437 | 0.22147 | 333 ft | 0 kts | 312° |
| 2026-05-01 12:42 | 51.87458 | 0.22109 | 333 ft | 13 kts | 313° |
| 2026-05-01 12:42 | 51.87518 | 0.22021 | 332 ft | 5 kts | 18° |
| 2026-05-01 12:43 | 51.87557 | 0.22067 | 334 ft | 17 kts | 43° |
| 2026-05-01 12:43 | 51.87830 | 0.22479 | 338 ft | 88 kts | 43° |
| 2026-05-01 12:43 | 51.88436 | 0.23389 | 340 ft | 147 kts | 43° |
| 2026-05-01 12:43 | 51.89270 | 0.24619 | 619 ft | 169 kts | 45° |
| 2026-05-01 12:44 | 51.90168 | 0.25877 | 1206 ft | 177 kts | 45° |
| 2026-05-01 12:44 | 51.91085 | 0.27315 | 1637 ft | 195 kts | 53° |
| 2026-05-01 12:44 | 51.91578 | 0.31571 | 2499 ft | 209 kts | 109° |
| 2026-05-01 12:45 | 51.90301 | 0.36183 | 3216 ft | 241 kts | 118° |
| 2026-05-01 12:45 | 51.89557 | 0.38667 | 3643 ft | 254 kts | 118° |
| 2026-05-01 12:45 | 51.88515 | 0.42219 | 3973 ft | 262 kts | 117° |
| 2026-05-01 12:46 | 51.88000 | 0.43989 | 3966 ft | 261 kts | 117° |
| 2026-05-01 12:46 | 51.87228 | 0.46641 | 3980 ft | 262 kts | 117° |
| 2026-05-01 12:46 | 51.86453 | 0.49290 | 3984 ft | 262 kts | 118° |
| 2026-05-01 12:46 | 51.85675 | 0.51944 | 3980 ft | 263 kts | 118° |
| 2026-05-01 12:47 | 51.84886 | 0.54633 | 3991 ft | 264 kts | 117° |
| 2026-05-01 12:47 | 51.84404 | 0.57561 | 4334 ft | 280 kts | 91° |
| 2026-05-01 12:47 | 51.84681 | 0.60606 | 5190 ft | 277 kts | 78° |
| 2026-05-01 12:47 | 51.85194 | 0.63650 | 5851 ft | 280 kts | 76° |
| 2026-05-01 12:48 | 51.85709 | 0.66680 | 6504 ft | 283 kts | 78° |
| 2026-05-01 12:48 | 51.86178 | 0.69736 | 7171 ft | 285 kts | 79° |
| 2026-05-01 12:48 | 51.86622 | 0.72882 | 7853 ft | 286 kts | 81° |
| 2026-05-01 12:48 | 51.87049 | 0.76034 | 8551 ft | 289 kts | 81° |
| 2026-05-01 12:49 | 51.87471 | 0.79182 | 9252 ft | 291 kts | 81° |
| 2026-05-01 12:49 | 51.87898 | 0.82368 | 9959 ft | 292 kts | 81° |
| 2026-05-01 12:49 | 51.88333 | 0.85605 | 10566 ft | 298 kts | 81° |
| 2026-05-01 12:49 | 51.88779 | 0.88952 | 10943 ft | 313 kts | 81° |
| 2026-05-01 12:50 | 51.89244 | 0.92434 | 11324 ft | 327 kts | 81° |
| 2026-05-01 12:50 | 51.89738 | 0.96149 | 11721 ft | 341 kts | 81° |
| 2026-05-01 12:50 | 51.90245 | 0.99933 | 12371 ft | 347 kts | 81° |
| 2026-05-01 12:50 | 51.90757 | 1.03757 | 13038 ft | 351 kts | 81° |
| 2026-05-01 12:51 | 51.91275 | 1.07635 | 13708 ft | 356 kts | 81° |
| 2026-05-01 12:51 | 51.91793 | 1.11530 | 14458 ft | 358 kts | 82° |
| 2026-05-01 12:51 | 51.92844 | 1.19485 | 15818 ft | 365 kts | 82° |
| 2026-05-01 12:52 | 51.93374 | 1.23521 | 16526 ft | 369 kts | 82° |
| 2026-05-01 12:52 | 51.94450 | 1.31742 | 17806 ft | 377 kts | 82° |
| 2026-05-01 12:52 | 51.94988 | 1.35876 | 18424 ft | 381 kts | 82° |
| 2026-05-01 12:53 | 51.96078 | 1.44283 | 19698 ft | 386 kts | 82° |
| 2026-05-01 12:53 | 51.96632 | 1.48577 | 20304 ft | 389 kts | 82° |
| 2026-05-01 12:53 | 51.97187 | 1.52893 | 20824 ft | 393 kts | 82° |
| 2026-05-01 12:54 | 51.97739 | 1.57191 | 21407 ft | 396 kts | 82° |
| 2026-05-01 12:54 | 51.98864 | 1.65988 | 22533 ft | 401 kts | 83° |
| 2026-05-01 12:54 | 51.99443 | 1.70431 | 23056 ft | 404 kts | 82° |
| 2026-05-01 12:55 | 52.00783 | 1.79320 | 24006 ft | 412 kts | 80° |
| 2026-05-01 12:55 | 52.01504 | 1.83835 | 24531 ft | 414 kts | 79° |
| 2026-05-01 12:55 | 52.02214 | 1.88277 | 24960 ft | 417 kts | 79° |
| 2026-05-01 12:56 | 52.02763 | 1.91731 | 25296 ft | 419 kts | 79° |
| 2026-05-01 12:56 | 52.03490 | 1.96339 | 25733 ft | 423 kts | 79° |
| 2026-05-01 12:56 | 52.04214 | 2.00975 | 26193 ft | 425 kts | 79° |
| 2026-05-01 12:56 | 52.04934 | 2.05621 | 26614 ft | 428 kts | 79° |
| 2026-05-01 12:57 | 52.05656 | 2.10306 | 27006 ft | 432 kts | 79° |
| 2026-05-01 12:57 | 52.07107 | 2.19809 | 27899 ft | 435 kts | 79° |
| 2026-05-01 12:57 | 52.07836 | 2.24612 | 28305 ft | 438 kts | 79° |
| 2026-05-01 12:58 | 52.08563 | 2.29415 | 28703 ft | 440 kts | 79° |
| 2026-05-01 12:58 | 52.09291 | 2.34244 | 29066 ft | 443 kts | 79° |
| 2026-05-01 12:58 | 52.10016 | 2.39068 | 29417 ft | 446 kts | 79° |
| 2026-05-01 12:59 | 52.11496 | 2.48962 | 30101 ft | 452 kts | 78° |
| 2026-05-01 12:59 | 52.12298 | 2.53889 | 30450 ft | 454 kts | 76° |
| 2026-05-01 12:59 | 52.14141 | 2.63666 | 31509 ft | 450 kts | 74° |
| 2026-05-01 13:00 | 52.16051 | 2.73349 | 32357 ft | 448 kts | 75° |
| 2026-05-01 13:00 | 52.16985 | 2.78124 | 32808 ft | 446 kts | 75° |
| 2026-05-01 13:01 | 52.18844 | 2.87782 | 33556 ft | 445 kts | 75° |
| 2026-05-01 13:01 | 52.19760 | 2.92607 | 33936 ft | 444 kts | 75° |
| 2026-05-01 13:01 | 52.21555 | 3.02153 | 34657 ft | 443 kts | 75° |
| 2026-05-01 13:02 | 52.22452 | 3.06965 | 34944 ft | 442 kts | 75° |
| 2026-05-01 13:07 | 52.20099 | 4.08581 | 37217 ft | 429 kts | 97° |
| 2026-05-01 13:07 | 52.19760 | 4.13477 | 37221 ft | 432 kts | 97° |
| 2026-05-01 13:08 | 52.19082 | 4.23199 | 37221 ft | 432 kts | 97° |
| 2026-05-01 13:08 | 52.18397 | 4.32904 | 37226 ft | 432 kts | 97° |
| 2026-05-01 13:09 | 52.17701 | 4.42634 | 37231 ft | 432 kts | 97° |
| 2026-05-01 13:09 | 52.17007 | 4.52242 | 37236 ft | 432 kts | 97° |
| 2026-05-01 13:10 | 52.16291 | 4.62021 | 37238 ft | 433 kts | 97° |
| 2026-05-01 13:10 | 52.15575 | 4.71695 | 37241 ft | 433 kts | 98° |
| 2026-05-01 13:11 | 52.14847 | 4.81416 | 37244 ft | 434 kts | 97° |
| 2026-05-01 13:11 | 52.13985 | 4.92793 | 37242 ft | 433 kts | 98° |
| 2026-05-01 13:12 | 52.13363 | 5.00919 | 37243 ft | 433 kts | 98° |
| 2026-05-01 13:12 | 52.12616 | 5.10561 | 37241 ft | 433 kts | 98° |
| 2026-05-01 13:13 | 52.11856 | 5.20272 | 37241 ft | 433 kts | 97° |
| 2026-05-01 13:13 | 52.11083 | 5.30054 | 37243 ft | 434 kts | 97° |
| 2026-05-01 13:14 | 52.10304 | 5.39790 | 37246 ft | 435 kts | 97° |
| 2026-05-01 13:14 | 52.09526 | 5.49425 | 37249 ft | 430 kts | 97° |
| 2026-05-01 13:15 | 52.08738 | 5.59074 | 37517 ft | 438 kts | 97° |
| 2026-05-01 13:15 | 52.08331 | 5.64012 | 37258 ft | 436 kts | 97° |
| 2026-05-01 13:15 | 52.07937 | 5.68781 | 37262 ft | 430 kts | 98° |
| 2026-05-01 13:16 | 52.07134 | 5.78413 | 37263 ft | 432 kts | 98° |
| 2026-05-01 13:16 | 52.06369 | 5.88138 | 37267 ft | 432 kts | 96° |
| 2026-05-01 13:17 | 52.05303 | 6.07506 | 37264 ft | 432 kts | 95° |
| 2026-05-01 13:18 | 52.04503 | 6.21947 | 37259 ft | 432 kts | 95° |
| 2026-05-01 13:18 | 52.03938 | 6.31616 | 37256 ft | 432 kts | 95° |
| 2026-05-01 13:19 | 52.03361 | 6.41249 | 37256 ft | 432 kts | 95° |
| 2026-05-01 13:20 | 52.02471 | 6.55771 | 37257 ft | 432 kts | 95° |
| 2026-05-01 13:20 | 52.01870 | 6.65412 | 37259 ft | 432 kts | 96° |
| 2026-05-01 13:21 | 52.00944 | 6.79994 | 37262 ft | 432 kts | 96° |
| 2026-05-01 13:21 | 52.00321 | 6.89659 | 37274 ft | 432 kts | 96° |
| 2026-05-01 13:22 | 51.99693 | 6.99280 | 37273 ft | 432 kts | 95° |
| 2026-05-01 13:22 | 51.99052 | 7.08972 | 37282 ft | 431 kts | 95° |
| 2026-05-01 13:23 | 51.98409 | 7.18561 | 37287 ft | 432 kts | 95° |
| 2026-05-01 13:23 | 51.97754 | 7.28218 | 37285 ft | 432 kts | 95° |
| 2026-05-01 13:24 | 51.97090 | 7.37892 | 37287 ft | 431 kts | 95° |
| 2026-05-01 13:25 | 51.96085 | 7.52303 | 37281 ft | 431 kts | 95° |
| 2026-05-01 13:25 | 51.95402 | 7.61960 | 37283 ft | 431 kts | 95° |
| 2026-05-01 13:26 | 51.94714 | 7.71578 | 37281 ft | 432 kts | 96° |
| 2026-05-01 13:26 | 51.94017 | 7.81194 | 37282 ft | 431 kts | 96° |
| 2026-05-01 13:27 | 51.93312 | 7.90813 | 37282 ft | 430 kts | 96° |
| 2026-05-01 13:27 | 51.92238 | 8.05271 | 37287 ft | 430 kts | 96° |
| 2026-05-01 13:28 | 51.91145 | 8.19729 | 37296 ft | 430 kts | 96° |
| 2026-05-01 13:29 | 51.89674 | 8.38820 | 37311 ft | 431 kts | 96° |
| 2026-05-01 13:31 | 51.87398 | 8.67582 | 37316 ft | 430 kts | 96° |
| 2026-05-01 13:32 | 51.85448 | 8.91526 | 37312 ft | 430 kts | 96° |
| 2026-05-01 13:33 | 51.83448 | 9.15453 | 37314 ft | 430 kts | 97° |
| 2026-05-01 13:34 | 51.81811 | 9.34611 | 37318 ft | 429 kts | 96° |
| 2026-05-01 13:35 | 51.80570 | 9.48878 | 37327 ft | 429 kts | 96° |
| 2026-05-01 13:36 | 51.79319 | 9.63053 | 37333 ft | 425 kts | 96° |
| 2026-05-01 13:36 | 51.78040 | 9.77373 | 37340 ft | 431 kts | 97° |
| 2026-05-01 13:37 | 51.77182 | 9.86854 | 37334 ft | 429 kts | 97° |
| 2026-05-01 13:37 | 51.76313 | 9.96368 | 37330 ft | 430 kts | 97° |
| 2026-05-01 13:38 | 51.74999 | 10.10592 | 37331 ft | 429 kts | 97° |
| 2026-05-01 13:39 | 51.74105 | 10.20157 | 37334 ft | 429 kts | 97° |
| 2026-05-01 13:39 | 51.73207 | 10.29677 | 37338 ft | 429 kts | 97° |
| 2026-05-01 13:40 | 51.72305 | 10.39155 | 37341 ft | 429 kts | 97° |
| 2026-05-01 13:40 | 51.71394 | 10.48653 | 37338 ft | 428 kts | 97° |
| 2026-05-01 13:41 | 51.70477 | 10.58120 | 37343 ft | 428 kts | 97° |
| 2026-05-01 13:41 | 51.69555 | 10.67551 | 37346 ft | 427 kts | 98° |
| 2026-05-01 13:42 | 51.68624 | 10.77005 | 37348 ft | 427 kts | 98° |
| 2026-05-01 13:42 | 51.67687 | 10.86478 | 37345 ft | 427 kts | 97° |
| 2026-05-01 13:43 | 51.67095 | 10.95899 | 37343 ft | 426 kts | 92° |
| 2026-05-01 13:43 | 51.66848 | 11.05436 | 37344 ft | 426 kts | 90° |
| 2026-05-01 13:44 | 51.66656 | 11.14900 | 37344 ft | 426 kts | 90° |
| 2026-05-01 13:44 | 51.66437 | 11.24460 | 37346 ft | 425 kts | 91° |
| 2026-05-01 13:45 | 51.66192 | 11.33914 | 37350 ft | 419 kts | 91° |
| 2026-05-01 13:45 | 51.65930 | 11.43327 | 37352 ft | 426 kts | 91° |
| 2026-05-01 13:46 | 51.65655 | 11.52762 | 37350 ft | 423 kts | 91° |
| 2026-05-01 13:46 | 51.65368 | 11.62237 | 37350 ft | 423 kts | 91° |
| 2026-05-01 13:47 | 51.65074 | 11.71725 | 37345 ft | 423 kts | 91° |
| 2026-05-01 13:47 | 51.64774 | 11.81161 | 37343 ft | 423 kts | 91° |
| 2026-05-01 13:48 | 51.64467 | 11.90577 | 37344 ft | 422 kts | 91° |
| 2026-05-01 13:48 | 51.64151 | 12.00025 | 37343 ft | 423 kts | 91° |
| 2026-05-01 13:49 | 51.63762 | 12.09473 | 37345 ft | 423 kts | 93° |
| 2026-05-01 13:49 | 51.63122 | 12.18912 | 37350 ft | 422 kts | 95° |
| 2026-05-01 13:50 | 51.62430 | 12.28251 | 37348 ft | 422 kts | 95° |
| 2026-05-01 13:50 | 51.61741 | 12.37659 | 37348 ft | 422 kts | 94° |
| 2026-05-01 13:51 | 51.61065 | 12.47033 | 37350 ft | 421 kts | 94° |
| 2026-05-01 13:51 | 51.60393 | 12.56378 | 37347 ft | 421 kts | 94° |
| 2026-05-01 13:52 | 51.59724 | 12.65651 | 37352 ft | 421 kts | 95° |
| 2026-05-01 13:52 | 51.59045 | 12.74979 | 37358 ft | 421 kts | 95° |
| 2026-05-01 13:53 | 51.58361 | 12.84266 | 37367 ft | 420 kts | 95° |
| 2026-05-01 13:53 | 51.57318 | 12.98239 | 37365 ft | 421 kts | 94° |
| 2026-05-01 13:54 | 51.56616 | 13.07506 | 37361 ft | 420 kts | 94° |
| 2026-05-01 13:54 | 51.55901 | 13.16836 | 37361 ft | 419 kts | 94° |
| 2026-05-01 13:55 | 51.55185 | 13.26111 | 37365 ft | 419 kts | 94° |
| 2026-05-01 13:55 | 51.54459 | 13.35414 | 37359 ft | 420 kts | 94° |
| 2026-05-01 13:56 | 51.53723 | 13.44737 | 37363 ft | 419 kts | 94° |
| 2026-05-01 13:56 | 51.52984 | 13.54008 | 37350 ft | 420 kts | 94° |
| 2026-05-01 13:57 | 51.52239 | 13.63253 | 37349 ft | 419 kts | 94° |
| 2026-05-01 13:57 | 51.51485 | 13.72512 | 37349 ft | 420 kts | 95° |
| 2026-05-01 13:58 | 51.50722 | 13.81803 | 37347 ft | 419 kts | 95° |
| 2026-05-01 13:58 | 51.49956 | 13.91038 | 37344 ft | 418 kts | 94° |
| 2026-05-01 13:59 | 51.49184 | 14.00236 | 37347 ft | 418 kts | 94° |
| 2026-05-01 13:59 | 51.48402 | 14.09491 | 37343 ft | 419 kts | 94° |
| 2026-05-01 14:00 | 51.47606 | 14.18795 | 37341 ft | 419 kts | 94° |
| 2026-05-01 14:00 | 51.46809 | 14.28023 | 37344 ft | 419 kts | 94° |
| 2026-05-01 14:01 | 51.46006 | 14.37246 | 37339 ft | 418 kts | 94° |
| 2026-05-01 14:01 | 51.45197 | 14.46449 | 37343 ft | 418 kts | 94° |
| 2026-05-01 14:02 | 51.44376 | 14.55715 | 37338 ft | 418 kts | 94° |
| 2026-05-01 14:02 | 51.43962 | 14.60344 | 37129 ft | 414 kts | 94° |
| 2026-05-01 14:02 | 51.43556 | 14.64864 | 37343 ft | 415 kts | 94° |
| 2026-05-01 14:03 | 51.42721 | 14.74123 | 37342 ft | 422 kts | 95° |
| 2026-05-01 14:03 | 51.41878 | 14.83366 | 37255 ft | 420 kts | 95° |
| 2026-05-01 14:04 | 51.40973 | 14.92619 | 37343 ft | 423 kts | 97° |
| 2026-05-01 14:04 | 51.39379 | 15.01711 | 37344 ft | 427 kts | 106° |
| 2026-05-01 14:05 | 51.37178 | 15.10476 | 37347 ft | 427 kts | 109° |
| 2026-05-01 14:05 | 51.34839 | 15.19230 | 37347 ft | 427 kts | 109° |
| 2026-05-01 14:06 | 51.32511 | 15.27970 | 37342 ft | 426 kts | 108° |
| 2026-05-01 14:06 | 51.30214 | 15.36666 | 37330 ft | 426 kts | 108° |
| 2026-05-01 14:07 | 51.27918 | 15.45386 | 37336 ft | 426 kts | 108° |
| 2026-05-01 14:08 | 51.24478 | 15.58443 | 37333 ft | 425 kts | 108° |
| 2026-05-01 14:08 | 51.22178 | 15.67138 | 37334 ft | 426 kts | 109° |
| 2026-05-01 14:09 | 51.19867 | 15.75850 | 37336 ft | 426 kts | 108° |
| 2026-05-01 14:09 | 51.17563 | 15.84493 | 37328 ft | 426 kts | 108° |
| 2026-05-01 14:10 | 51.15261 | 15.93205 | 37329 ft | 426 kts | 108° |
| 2026-05-01 14:10 | 51.13025 | 16.01893 | 37327 ft | 425 kts | 107° |
| 2026-05-01 14:11 | 51.10783 | 16.10611 | 37329 ft | 425 kts | 107° |
| 2026-05-01 14:11 | 51.07417 | 16.23600 | 37324 ft | 424 kts | 107° |
| 2026-05-01 14:12 | 51.05160 | 16.32249 | 37324 ft | 425 kts | 107° |
| 2026-05-01 14:12 | 51.02877 | 16.40958 | 37324 ft | 424 kts | 107° |
| 2026-05-01 14:13 | 51.00616 | 16.49546 | 37325 ft | 424 kts | 107° |
| 2026-05-01 14:13 | 50.98330 | 16.58194 | 37325 ft | 425 kts | 107° |
| 2026-05-01 14:14 | 50.96046 | 16.66793 | 37327 ft | 424 kts | 108° |
| 2026-05-01 14:14 | 50.93751 | 16.75406 | 37327 ft | 426 kts | 108° |
| 2026-05-01 14:15 | 50.91436 | 16.84061 | 37327 ft | 423 kts | 108° |
| 2026-05-01 14:15 | 50.89152 | 16.92567 | 37325 ft | 423 kts | 108° |
| 2026-05-01 14:16 | 50.86841 | 17.01143 | 37322 ft | 423 kts | 107° |
| 2026-05-01 14:16 | 50.84523 | 17.09720 | 37315 ft | 424 kts | 107° |
| 2026-05-01 14:17 | 50.83360 | 17.13999 | 37066 ft | 419 kts | 107° |
| 2026-05-01 14:17 | 50.82204 | 17.18209 | 36647 ft | 413 kts | 107° |
| 2026-05-01 14:17 | 50.81064 | 17.22337 | 36223 ft | 412 kts | 107° |
| 2026-05-01 14:17 | 50.79921 | 17.26476 | 35812 ft | 415 kts | 107° |
| 2026-05-01 14:18 | 50.78772 | 17.30635 | 35318 ft | 415 kts | 107° |
| 2026-05-01 14:18 | 50.77615 | 17.34809 | 34813 ft | 413 kts | 107° |
| 2026-05-01 14:18 | 50.76457 | 17.38973 | 34304 ft | 410 kts | 107° |
| 2026-05-01 14:18 | 50.75324 | 17.43040 | 33806 ft | 408 kts | 107° |
| 2026-05-01 14:19 | 50.74195 | 17.47086 | 33311 ft | 405 kts | 107° |
| 2026-05-01 14:19 | 50.73064 | 17.51132 | 32815 ft | 402 kts | 107° |
| 2026-05-01 14:19 | 50.71953 | 17.55142 | 32320 ft | 399 kts | 106° |
| 2026-05-01 14:19 | 50.70858 | 17.59128 | 31827 ft | 397 kts | 106° |
| 2026-05-01 14:20 | 50.69782 | 17.63054 | 31339 ft | 394 kts | 106° |
| 2026-05-01 14:20 | 50.67638 | 17.70863 | 30344 ft | 388 kts | 107° |
| 2026-05-01 14:20 | 50.66582 | 17.74696 | 29853 ft | 385 kts | 107° |
| 2026-05-01 14:21 | 50.65517 | 17.78553 | 29370 ft | 381 kts | 107° |
| 2026-05-01 14:21 | 50.64457 | 17.82379 | 28890 ft | 377 kts | 107° |
| 2026-05-01 14:21 | 50.63419 | 17.86124 | 28415 ft | 373 kts | 107° |
| 2026-05-01 14:22 | 50.61366 | 17.93499 | 27481 ft | 366 kts | 107° |
| 2026-05-01 14:22 | 50.60334 | 17.97096 | 27025 ft | 363 kts | 108° |
| 2026-05-01 14:22 | 50.59286 | 18.00731 | 26563 ft | 357 kts | 105° |
| 2026-05-01 14:22 | 50.58573 | 18.04358 | 26114 ft | 345 kts | 94° |
| 2026-05-01 14:23 | 50.58287 | 18.08014 | 25674 ft | 337 kts | 88° |
| 2026-05-01 14:23 | 50.58072 | 18.11648 | 25347 ft | 332 kts | 93° |
| 2026-05-01 14:23 | 50.57571 | 18.15175 | 25078 ft | 329 kts | 98° |
| 2026-05-01 14:23 | 50.56910 | 18.18645 | 24804 ft | 328 kts | 100° |
| 2026-05-01 14:24 | 50.56217 | 18.22066 | 24534 ft | 328 kts | 100° |
| 2026-05-01 14:24 | 50.55541 | 18.25452 | 24264 ft | 327 kts | 100° |
| 2026-05-01 14:24 | 50.54872 | 18.28880 | 23992 ft | 324 kts | 99° |
| 2026-05-01 14:24 | 50.54236 | 18.32217 | 23726 ft | 321 kts | 99° |
| 2026-05-01 14:25 | 50.53603 | 18.35582 | 23461 ft | 320 kts | 99° |
| 2026-05-01 14:25 | 50.52972 | 18.38972 | 23193 ft | 320 kts | 98° |
| 2026-05-01 14:25 | 50.52353 | 18.42313 | 22927 ft | 319 kts | 98° |
| 2026-05-01 14:25 | 50.51734 | 18.45654 | 22663 ft | 319 kts | 98° |
| 2026-05-01 14:26 | 50.51117 | 18.48972 | 22400 ft | 316 kts | 98° |
| 2026-05-01 14:26 | 50.49890 | 18.55554 | 21875 ft | 314 kts | 98° |
| 2026-05-01 14:26 | 50.49278 | 18.58836 | 21611 ft | 312 kts | 98° |
| 2026-05-01 14:27 | 50.48666 | 18.62099 | 21348 ft | 311 kts | 98° |
| 2026-05-01 14:27 | 50.48053 | 18.65376 | 21084 ft | 311 kts | 99° |
| 2026-05-01 14:27 | 50.47446 | 18.68617 | 20823 ft | 309 kts | 99° |
| 2026-05-01 14:28 | 50.46233 | 18.75057 | 20299 ft | 307 kts | 98° |
| 2026-05-01 14:28 | 50.45629 | 18.78262 | 20032 ft | 306 kts | 98° |
| 2026-05-01 14:28 | 50.45025 | 18.81463 | 19763 ft | 305 kts | 98° |
| 2026-05-01 14:28 | 50.44426 | 18.84636 | 19492 ft | 304 kts | 98° |
| 2026-05-01 14:29 | 50.43818 | 18.87839 | 19245 ft | 302 kts | 99° |
| 2026-05-01 14:29 | 50.43220 | 18.90987 | 18975 ft | 301 kts | 98° |
| 2026-05-01 14:30 | 50.41443 | 19.00325 | 18200 ft | 297 kts | 98° |
| 2026-05-01 14:30 | 50.40848 | 19.03438 | 17936 ft | 296 kts | 98° |
| 2026-05-01 14:30 | 50.40260 | 19.06507 | 17683 ft | 295 kts | 98° |
| 2026-05-01 14:31 | 50.39082 | 19.12644 | 17172 ft | 294 kts | 98° |
| 2026-05-01 14:31 | 50.38495 | 19.15699 | 16918 ft | 294 kts | 98° |
| 2026-05-01 14:31 | 50.37906 | 19.18755 | 16678 ft | 293 kts | 98° |
| 2026-05-01 14:31 | 50.37317 | 19.21800 | 16415 ft | 291 kts | 99° |
| 2026-05-01 14:32 | 50.36733 | 19.24819 | 16185 ft | 290 kts | 98° |
| 2026-05-01 14:32 | 50.36145 | 19.27859 | 15956 ft | 290 kts | 99° |
| 2026-05-01 14:32 | 50.35562 | 19.30867 | 15698 ft | 288 kts | 98° |
| 2026-05-01 14:32 | 50.34988 | 19.33815 | 15444 ft | 286 kts | 98° |
| 2026-05-01 14:33 | 50.34408 | 19.36797 | 15193 ft | 287 kts | 98° |
| 2026-05-01 14:33 | 50.33824 | 19.39801 | 14957 ft | 286 kts | 98° |
| 2026-05-01 14:33 | 50.33248 | 19.42755 | 14715 ft | 285 kts | 99° |
| 2026-05-01 14:33 | 50.32669 | 19.45713 | 14459 ft | 284 kts | 99° |
| 2026-05-01 14:34 | 50.32087 | 19.48687 | 14202 ft | 283 kts | 99° |
| 2026-05-01 14:34 | 50.31519 | 19.51588 | 13924 ft | 283 kts | 98° |
| 2026-05-01 14:34 | 50.30946 | 19.54525 | 13714 ft | 282 kts | 98° |
| 2026-05-01 14:34 | 50.30368 | 19.57477 | 13471 ft | 282 kts | 98° |
| 2026-05-01 14:35 | 50.29796 | 19.60380 | 13216 ft | 281 kts | 99° |
| 2026-05-01 14:35 | 50.29219 | 19.63297 | 12973 ft | 280 kts | 99° |
| 2026-05-01 14:35 | 50.28644 | 19.66223 | 12722 ft | 281 kts | 100° |
| 2026-05-01 14:35 | 50.28067 | 19.69148 | 12464 ft | 280 kts | 100° |
| 2026-05-01 14:36 | 50.27495 | 19.72040 | 12186 ft | 279 kts | 99° |
| 2026-05-01 14:36 | 50.26923 | 19.74919 | 11962 ft | 279 kts | 100° |
| 2026-05-01 14:36 | 50.26350 | 19.77806 | 11706 ft | 278 kts | 100° |
| 2026-05-01 14:36 | 50.25771 | 19.80716 | 11467 ft | 277 kts | 100° |
| 2026-05-01 14:37 | 50.25203 | 19.83572 | 11228 ft | 277 kts | 100° |
| 2026-05-01 14:37 | 50.24632 | 19.86439 | 10973 ft | 275 kts | 101° |
| 2026-05-01 14:37 | 50.24059 | 19.89304 | 10732 ft | 275 kts | 100° |
| 2026-05-01 14:37 | 50.23501 | 19.92118 | 10485 ft | 274 kts | 100° |
| 2026-05-01 14:38 | 50.22930 | 19.94982 | 10233 ft | 274 kts | 101° |
| 2026-05-01 14:38 | 50.22358 | 19.97821 | 9985 ft | 274 kts | 101° |
| 2026-05-01 14:38 | 50.21793 | 20.00644 | 9733 ft | 271 kts | 101° |
| 2026-05-01 14:38 | 50.21234 | 20.03419 | 9474 ft | 266 kts | 101° |
| 2026-05-01 14:39 | 50.20810 | 20.06147 | 9231 ft | 254 kts | 91° |
| 2026-05-01 14:39 | 50.20851 | 20.08830 | 8992 ft | 239 kts | 74° |
| 2026-05-01 14:39 | 50.21241 | 20.11278 | 8744 ft | 232 kts | 69° |
| 2026-05-01 14:39 | 50.21659 | 20.13678 | 8494 ft | 228 kts | 71° |
| 2026-05-01 14:40 | 50.22032 | 20.16113 | 8257 ft | 225 kts | 72° |
| 2026-05-01 14:40 | 50.22360 | 20.18463 | 8006 ft | 221 kts | 72° |
| 2026-05-01 14:40 | 50.22598 | 20.20800 | 7833 ft | 217 kts | 84° |
| 2026-05-01 14:40 | 50.22219 | 20.23066 | 7709 ft | 221 kts | 116° |
| 2026-05-01 14:41 | 50.21122 | 20.24753 | 7493 ft | 226 kts | 144° |
| 2026-05-01 14:41 | 50.19673 | 20.25693 | 7199 ft | 231 kts | 168° |
| 2026-05-01 14:41 | 50.18065 | 20.25565 | 6900 ft | 230 kts | 202° |
| 2026-05-01 14:41 | 50.16777 | 20.24219 | 6634 ft | 222 kts | 232° |
| 2026-05-01 14:42 | 50.15919 | 20.22278 | 6381 ft | 215 kts | 248° |
| 2026-05-01 14:42 | 50.15311 | 20.20183 | 6148 ft | 211 kts | 252° |
| 2026-05-01 14:42 | 50.14732 | 20.18083 | 5869 ft | 210 kts | 251° |
| 2026-05-01 14:42 | 50.14136 | 20.16011 | 5665 ft | 206 kts | 251° |
| 2026-05-01 14:43 | 50.13542 | 20.14048 | 5493 ft | 197 kts | 251° |
| 2026-05-01 14:43 | 50.12964 | 20.12124 | 5215 ft | 195 kts | 249° |
| 2026-05-01 14:43 | 50.12370 | 20.10202 | 4872 ft | 198 kts | 249° |
| 2026-05-01 14:43 | 50.11861 | 20.08219 | 4537 ft | 198 kts | 259° |
| 2026-05-01 14:44 | 50.11566 | 20.06108 | 4081 ft | 200 kts | 264° |
| 2026-05-01 14:44 | 50.11044 | 20.02100 | 4004 ft | 183 kts | 262° |
| 2026-05-01 14:44 | 50.10780 | 20.00160 | 4001 ft | 182 kts | 263° |
| 2026-05-01 14:45 | 50.10521 | 19.98215 | 3788 ft | 185 kts | 263° |
| 2026-05-01 14:45 | 50.09929 | 19.94332 | 3068 ft | 181 kts | 262° |
| 2026-05-01 14:45 | 50.09668 | 19.92477 | 2998 ft | 176 kts | 264° |
| 2026-05-01 14:46 | 50.09461 | 19.90615 | 2991 ft | 167 kts | 264° |
| 2026-05-01 14:46 | 50.08975 | 19.87170 | 2619 ft | 164 kts | 263° |
| 2026-05-01 14:46 | 50.08749 | 19.85443 | 2106 ft | 168 kts | 263° |
| 2026-05-01 14:47 | 50.08488 | 19.83651 | 1533 ft | 173 kts | 261° |
| 2026-05-01 14:47 | 50.08245 | 19.81856 | 1090 ft | 165 kts | 262° |
| 2026-05-01 14:47 | 50.08010 | 19.80165 | 860 ft | 157 kts | 261° |
| 2026-05-01 14:48 | 50.07679 | 19.77778 | 801 ft | 49 kts | 255° |
| 2026-05-01 14:48 | 50.07610 | 19.77328 | 801 ft | 34 kts | 257° |
| 2026-05-01 14:48 | 50.07506 | 19.76842 | 801 ft | 15 kts | 187° |
| 2026-05-01 14:49 | 50.07407 | 19.76875 | 801 ft | 0 kts | 168° |
| 2026-05-01 14:49 | 50.07326 | 19.77091 | 801 ft | 20 kts | 78° |
| 2026-05-01 14:50 | 50.07382 | 19.77486 | 801 ft | 24 kts | 76° |
| 2026-05-01 14:50 | 50.07478 | 19.78179 | 801 ft | 29 kts | 77° |
| 2026-05-01 14:51 | 50.07521 | 19.78487 | 801 ft | 28 kts | 78° |
| 2026-05-01 14:51 | 50.07603 | 19.79072 | 801 ft | 27 kts | 77° |
| 2026-05-01 14:52 | 50.07675 | 19.79593 | 801 ft | 21 kts | 78° |
| 2026-05-01 14:52 | 50.07704 | 19.79803 | 801 ft | 15 kts | 78° |
| 2026-05-01 14:52 | 50.07549 | 19.79916 | 801 ft | 12 kts | 166° |
| 2026-05-01 14:53 | 50.07515 | 19.79987 | 801 ft | 6 kts | 90° |
| 2026-05-01 14:53 | 50.07520 | 19.80036 | 801 ft | 2 kts | 79° |
| 2026-05-01 14:53 | 50.07511 | 19.80061 | 801 ft | 4 kts | 157° |
| 2026-05-01 14:53 | 50.07482 | 19.80071 | 801 ft | 4 kts | 167° |
| 2026-05-01 14:54 | 50.07476 | 19.80073 | 801 ft | 0 kts | 167° |